PWSweather.com
Personal Weather Stations
Station Observations
PHMDWX
Perry Hall, MD 21236

Perry Hall, MD 21236

Lat: 39.418318, Lon: -76.490039

Elevation: 305

Station Type: Davis Vantage Pro

www.phmdwx.net

High Low Average
Temperature 83.2°F28.4°C 64.2°F17.9°C 71.3°F21.8°C
Dew Point 69.2°F20.7°C 63.9°F17.7°C 66.2°F19.0°C
Winds 3.5 mph 5.6 kmh Calm Calm 1.0 mph SW1.6 kmh SW
Wind Gusts 7.0 mph11.3 kmh -- 1.0 mph1.6 kmh
Humidity 99% 56% 86%
Pressure 29.93 in1013.5 mb 29.81 in1009.5 mb -
Precipitation 0.02 in0.5 mm - -
Hour Temp Dew Point Humidity Winds Wind Gusts Pressure Precip Precip Rate Daily Precip Total
12:00 AM 66.1°F18.9°C 65.9°F18.8°C 99% Calm Calm -- 29.82 in1009.8 mb - 0.00 in0.0 mm 0.00 in0.0 mm
12:30 AM 66.3°F19.1°C 66.0°F18.9°C 99% Calm Calm -- 29.82 in1009.8 mb - 0.00 in0.0 mm 0.00 in0.0 mm
01:00 AM 66.0°F18.9°C 65.7°F18.7°C 99% Calm Calm -- 29.82 in1009.8 mb - 0.01 in0.3 mm 0.01 in0.3 mm
01:30 AM 65.3°F18.5°C 65.0°F18.3°C 99% Calm Calm -- 29.82 in1009.8 mb - 0.00 in0.0 mm 0.01 in0.3 mm
02:00 AM 65.2°F18.4°C 64.9°F18.3°C 99% Calm Calm -- 29.81 in1009.5 mb - 0.00 in0.0 mm 0.01 in0.3 mm
02:30 AM 65.0°F18.3°C 64.7°F18.2°C 99% 0.3 mph ESE0.5 kmh ESE 1.0 mph1.6 kmh 29.81 in1009.5 mb - 0.00 in0.0 mm 0.01 in0.3 mm
03:00 AM 64.8°F18.2°C 64.5°F18.1°C 99% Calm Calm -- 29.81 in1009.5 mb - 0.00 in0.0 mm 0.01 in0.3 mm
03:30 AM 64.2°F17.9°C 63.9°F17.7°C 99% Calm Calm -- 29.81 in1009.5 mb - 0.00 in0.0 mm 0.01 in0.3 mm
04:00 AM 65.1°F18.4°C 64.9°F18.3°C 99% 1.3 mph ESE2.1 kmh ESE 2.0 mph3.2 kmh 29.82 in1009.8 mb - 0.00 in0.0 mm 0.01 in0.3 mm
04:30 AM 65.8°F18.8°C 65.5°F18.6°C 99% 0.6 mph ESE1.0 kmh ESE 2.0 mph3.2 kmh 29.82 in1009.8 mb - 0.00 in0.0 mm 0.01 in0.3 mm
05:00 AM 65.6°F18.7°C 65.3°F18.5°C 99% Calm Calm -- 29.82 in1009.8 mb - 0.01 in0.3 mm 0.02 in0.5 mm
05:30 AM 65.0°F18.3°C 64.7°F18.2°C 99% Calm Calm -- 29.82 in1009.8 mb - 0.00 in0.0 mm 0.02 in0.5 mm
06:00 AM 65.2°F18.4°C 64.9°F18.3°C 99% Calm Calm -- 29.83 in1010.2 mb - 0.00 in0.0 mm 0.02 in0.5 mm
06:30 AM 65.0°F18.3°C 64.7°F18.2°C 99% Calm Calm -- 29.83 in1010.2 mb - 0.00 in0.0 mm 0.02 in0.5 mm
07:00 AM 65.6°F18.7°C 65.3°F18.5°C 99% Calm Calm -- 29.84 in1010.5 mb - 0.00 in0.0 mm 0.02 in0.5 mm
07:30 AM 66.9°F19.4°C 66.6°F19.2°C 99% 0.4 mph SE0.6 kmh SE -- 29.85 in1010.8 mb - 0.00 in0.0 mm 0.02 in0.5 mm
08:00 AM 67.9°F19.9°C 67.6°F19.8°C 99% Calm Calm -- 29.85 in1010.8 mb - 0.00 in0.0 mm 0.02 in0.5 mm
08:30 AM 68.4°F20.2°C 68.1°F20.1°C 99% Calm Calm -- 29.86 in1011.2 mb - 0.00 in0.0 mm 0.02 in0.5 mm
09:00 AM 69.4°F20.8°C 69.1°F20.6°C 99% 1.0 mph SW1.6 kmh SW 3.0 mph4.8 kmh 29.86 in1011.2 mb - 0.00 in0.0 mm 0.02 in0.5 mm
09:30 AM 71.6°F22.0°C 69.2°F20.7°C 92% 0.7 mph SW1.1 kmh SW 3.0 mph4.8 kmh 29.86 in1011.2 mb - 0.00 in0.0 mm 0.02 in0.5 mm
10:00 AM 73.3°F22.9°C 67.8°F19.9°C 83% Calm Calm -- 29.86 in1011.2 mb - 0.00 in0.0 mm 0.02 in0.5 mm
10:30 AM 76.1°F24.5°C 69.2°F20.7°C 79% 0.5 mph ESE0.8 kmh ESE -- 29.86 in1011.2 mb - 0.00 in0.0 mm 0.02 in0.5 mm
11:00 AM 78.5°F25.8°C 66.6°F19.2°C 67% 3.3 mph SW5.3 kmh SW 7.0 mph11.3 kmh 29.86 in1011.2 mb - 0.00 in0.0 mm 0.02 in0.5 mm
11:30 AM 79.8°F26.6°C 66.1°F18.9°C 63% 2.3 mph WSW3.7 kmh WSW 6.0 mph9.7 kmh 29.84 in1010.5 mb - 0.00 in0.0 mm 0.02 in0.5 mm
12:00 PM 78.6°F25.9°C 66.3°F19.1°C 66% 3.0 mph W4.8 kmh W 6.0 mph9.7 kmh 29.84 in1010.5 mb - 0.00 in0.0 mm 0.02 in0.5 mm
12:30 PM 80.6°F27.0°C 65.5°F18.6°C 60% 1.6 mph WSW2.6 kmh WSW 7.0 mph11.3 kmh 29.84 in1010.5 mb - 0.00 in0.0 mm 0.02 in0.5 mm
01:00 PM 80.9°F27.2°C 66.2°F19.0°C 61% 3.5 mph W5.6 kmh W 5.0 mph8.0 kmh 29.84 in1010.5 mb - 0.00 in0.0 mm 0.02 in0.5 mm
01:30 PM 81.0°F27.2°C 65.3°F18.5°C 59% 2.3 mph WSW3.7 kmh WSW 6.0 mph9.7 kmh 29.83 in1010.2 mb - 0.00 in0.0 mm 0.02 in0.5 mm
02:00 PM 80.5°F26.9°C 65.8°F18.8°C 61% 3.3 mph W5.3 kmh W 5.0 mph8.0 kmh 29.83 in1010.2 mb - 0.00 in0.0 mm 0.02 in0.5 mm
02:30 PM 80.2°F26.8°C 66.0°F18.9°C 62% 2.8 mph WNW4.5 kmh WNW 5.0 mph8.0 kmh 29.83 in1010.2 mb - 0.00 in0.0 mm 0.02 in0.5 mm
03:00 PM 82.0°F27.8°C 64.8°F18.2°C 56% 1.4 mph WNW2.3 kmh WNW 5.0 mph8.0 kmh 29.83 in1010.2 mb - 0.00 in0.0 mm 0.02 in0.5 mm
03:30 PM 83.2°F28.4°C 66.4°F19.1°C 57% 1.5 mph NW2.4 kmh NW 3.0 mph4.8 kmh 29.83 in1010.2 mb - 0.00 in0.0 mm 0.02 in0.5 mm
04:00 PM 79.9°F26.6°C 67.0°F19.4°C 65% 2.2 mph NW3.5 kmh NW 3.0 mph4.8 kmh 29.83 in1010.2 mb - 0.00 in0.0 mm 0.02 in0.5 mm
04:30 PM 78.8°F26.0°C 66.0°F18.9°C 65% 1.2 mph WNW1.9 kmh WNW 2.0 mph3.2 kmh 29.83 in1010.2 mb - 0.00 in0.0 mm 0.02 in0.5 mm
05:00 PM 77.4°F25.2°C 66.8°F19.3°C 70% 0.1 mph WNW0.2 kmh WNW -- 29.84 in1010.5 mb - 0.00 in0.0 mm 0.02 in0.5 mm
05:30 PM 75.8°F24.3°C 66.5°F19.2°C 73% Calm Calm -- 29.85 in1010.8 mb - 0.00 in0.0 mm 0.02 in0.5 mm
06:00 PM 73.7°F23.2°C 67.2°F19.6°C 80% Calm Calm -- 29.86 in1011.2 mb - 0.00 in0.0 mm 0.02 in0.5 mm
06:30 PM 72.3°F22.4°C 66.8°F19.3°C 83% Calm Calm -- 29.87 in1011.5 mb - 0.00 in0.0 mm 0.02 in0.5 mm
07:00 PM 71.5°F21.9°C 67.1°F19.5°C 86% Calm Calm -- 29.88 in1011.9 mb - 0.00 in0.0 mm 0.02 in0.5 mm
07:30 PM 70.8°F21.6°C 67.4°F19.7°C 89% Calm Calm -- 29.89 in1012.2 mb - 0.00 in0.0 mm 0.02 in0.5 mm
08:00 PM 69.8°F21.0°C 66.7°F19.3°C 90% Calm Calm -- 29.90 in1012.5 mb - 0.00 in0.0 mm 0.02 in0.5 mm
08:30 PM 69.1°F20.6°C 66.7°F19.3°C 92% Calm Calm -- 29.90 in1012.5 mb - 0.00 in0.0 mm 0.02 in0.5 mm
09:00 PM 68.6°F20.3°C 66.8°F19.3°C 94% Calm Calm -- 29.91 in1012.9 mb - 0.00 in0.0 mm 0.02 in0.5 mm
09:30 PM 68.3°F20.2°C 66.5°F19.2°C 94% Calm Calm -- 29.91 in1012.9 mb - 0.00 in0.0 mm 0.02 in0.5 mm
10:00 PM 67.6°F19.8°C 66.1°F18.9°C 95% Calm Calm -- 29.92 in1013.2 mb - 0.00 in0.0 mm 0.02 in0.5 mm
10:30 PM 67.0°F19.4°C 65.5°F18.6°C 95% Calm Calm -- 29.92 in1013.2 mb - 0.00 in0.0 mm 0.02 in0.5 mm
11:00 PM 66.4°F19.1°C 65.2°F18.4°C 96% Calm Calm -- 29.92 in1013.2 mb - 0.00 in0.0 mm 0.02 in0.5 mm
11:30 PM 66.0°F18.9°C 64.8°F18.2°C 96% Calm Calm -- 29.93 in1013.5 mb - 0.00 in0.0 mm 0.02 in0.5 mm